createdAt,value
2018-07-31T00:02:31.878Z,27.70
2018-07-31T00:05:00.534Z,27.60
2018-07-31T00:07:29.217Z,27.60
2018-07-31T00:09:57.898Z,27.50
2018-07-31T00:12:26.580Z,27.50
2018-07-31T00:14:55.253Z,27.50
2018-07-31T00:19:52.375Z,27.40
2018-07-31T00:22:21.053Z,27.30
2018-07-31T00:24:49.733Z,27.30
2018-07-31T00:27:18.382Z,27.20
2018-07-31T00:29:47.088Z,27.20
2018-07-31T00:32:15.790Z,27.20
2018-07-31T00:34:45.301Z,26.90
2018-07-31T00:37:13.949Z,27.10
2018-07-31T00:39:42.641Z,27.10
2018-07-31T00:42:11.329Z,27.00
2018-07-31T00:44:40.016Z,26.90
2018-07-31T00:47:08.743Z,26.80
2018-07-31T00:49:37.509Z,26.80
2018-07-31T00:52:06.219Z,26.70
2018-07-31T00:57:03.302Z,26.60
2018-07-31T00:59:31.979Z,26.50
2018-07-31T01:02:00.672Z,26.50
2018-07-31T01:04:29.358Z,26.50
2018-07-31T01:09:26.540Z,26.60
2018-07-31T01:11:55.250Z,26.60
2018-07-31T01:16:52.354Z,26.50
2018-07-31T01:19:21.018Z,26.50
2018-07-31T01:21:49.721Z,26.50
2018-07-31T01:24:18.381Z,26.50
2018-07-31T01:26:47.114Z,26.50
2018-07-31T01:29:15.857Z,26.40
2018-07-31T01:31:44.542Z,26.40
2018-07-31T01:36:41.677Z,26.30
2018-07-31T01:39:11.673Z,26.30
2018-07-31T01:44:09.075Z,26.20
2018-07-31T01:46:37.802Z,26.20
2018-07-31T01:49:06.515Z,26.20
2018-07-31T01:51:35.225Z,26.20
2018-07-31T01:54:03.953Z,26.20
2018-07-31T01:56:32.681Z,26.20
2018-07-31T02:01:29.792Z,26.20
2018-07-31T02:06:27.943Z,26.00
2018-07-31T02:08:57.938Z,26.00
2018-07-31T02:11:26.747Z,25.80
2018-07-31T02:16:24.343Z,25.80
2018-07-31T02:18:53.025Z,25.70
2018-07-31T02:21:21.690Z,25.60
2018-07-31T02:23:50.372Z,25.60
2018-07-31T02:28:47.441Z,25.60
2018-07-31T02:33:45.049Z,25.30
2018-07-31T02:38:42.260Z,25.10
2018-07-31T02:41:10.951Z,25.10
2018-07-31T02:43:39.614Z,25.10
2018-07-31T02:46:08.323Z,25.10
2018-07-31T02:48:36.981Z,25.10
2018-07-31T02:51:05.884Z,25.10
2018-07-31T02:53:34.544Z,25.00
2018-07-31T03:03:28.735Z,24.90
2018-07-31T03:05:57.403Z,24.90
2018-07-31T03:08:26.309Z,25.00
2018-07-31T03:10:55.051Z,24.90
2018-07-31T03:13:23.753Z,24.80
2018-07-31T03:15:52.411Z,24.80
2018-07-31T03:18:21.130Z,24.80
2018-07-31T03:20:49.809Z,24.80
2018-07-31T03:23:18.634Z,24.70
2018-07-31T03:25:47.368Z,24.70
2018-07-31T03:28:16.092Z,24.70
2018-07-31T03:33:13.068Z,24.70
2018-07-31T03:35:41.744Z,24.60
2018-07-31T03:38:10.430Z,24.70
2018-07-31T03:40:39.089Z,24.60
2018-07-31T03:43:07.804Z,24.60
2018-07-31T03:45:36.493Z,24.60
2018-07-31T03:48:05.280Z,24.60
2018-07-31T03:50:33.945Z,24.60
2018-07-31T03:53:02.622Z,24.50
2018-07-31T03:55:31.327Z,24.50
2018-07-31T03:58:00.085Z,24.50
2018-07-31T04:00:28.729Z,24.50
2018-07-31T04:02:57.401Z,24.50
2018-07-31T04:05:26.155Z,24.60
2018-07-31T04:07:54.854Z,24.60
2018-07-31T04:10:23.557Z,24.60
2018-07-31T04:12:52.257Z,24.60
2018-07-31T04:15:20.940Z,24.60
2018-07-31T04:17:52.986Z,24.60
2018-07-31T04:20:21.698Z,24.60
2018-07-31T04:22:51.199Z,24.60
2018-07-31T04:25:20.444Z,24.70
2018-07-31T04:27:49.058Z,24.70
2018-07-31T04:30:17.770Z,24.70
2018-07-31T04:32:46.441Z,24.70
2018-07-31T04:35:15.156Z,24.70
2018-07-31T04:37:43.873Z,24.90
2018-07-31T04:40:12.540Z,24.90
2018-07-31T04:42:41.205Z,24.90
2018-07-31T04:45:10.855Z,25.00
2018-07-31T04:47:39.994Z,25.00
2018-07-31T04:50:09.537Z,25.10
2018-07-31T04:52:38.252Z,25.10
2018-07-31T04:55:06.956Z,25.10
2018-07-31T04:57:35.601Z,25.10
2018-07-31T05:02:34.428Z,25.10
2018-07-31T05:05:03.223Z,25.20
2018-07-31T05:07:34.416Z,25.10
2018-07-31T05:10:03.110Z,25.30
2018-07-31T05:12:32.615Z,25.40
2018-07-31T05:15:01.305Z,25.50
2018-07-31T05:17:30.626Z,25.50
2018-07-31T05:19:59.290Z,25.60
2018-07-31T05:22:28.107Z,25.60
2018-07-31T05:27:25.177Z,25.70
2018-07-31T05:29:53.928Z,25.70
2018-07-31T05:32:22.655Z,25.70
2018-07-31T05:34:51.325Z,25.80
2018-07-31T05:39:48.384Z,25.90
2018-07-31T05:42:17.057Z,25.90
2018-07-31T05:44:45.744Z,27.50
2018-07-31T05:47:17.777Z,28.90
2018-07-31T05:49:46.587Z,29.50
2018-07-31T05:52:15.306Z,30.20
2018-07-31T05:54:43.977Z,30.80
2018-07-31T05:57:12.673Z,31.80
2018-07-31T05:59:41.307Z,32.80
2018-07-31T06:02:09.993Z,34.00
2018-07-31T06:04:38.672Z,35.20
2018-07-31T19:31:55.320Z,30.40
2018-07-31T19:34:23.974Z,30.20
2018-07-31T19:36:52.677Z,30.10
2018-07-31T19:39:21.526Z,30.10
2018-07-31T19:44:18.594Z,30.00
2018-07-31T19:49:15.734Z,30.00
2018-07-31T19:51:44.459Z,29.90
2018-07-31T19:54:13.117Z,29.90
2018-07-31T19:56:41.793Z,29.80
2018-07-31T19:59:10.525Z,29.70
2018-07-31T20:01:39.241Z,29.60
2018-07-31T20:04:07.918Z,29.60
2018-07-31T20:06:36.622Z,29.60
2018-07-31T20:09:06.806Z,29.60
2018-07-31T20:11:35.496Z,29.50
2018-07-31T20:14:04.216Z,29.50
2018-07-31T20:16:32.894Z,29.40
2018-07-31T20:19:01.612Z,29.30
2018-07-31T20:21:30.320Z,29.20
2018-07-31T20:26:27.438Z,29.10
2018-07-31T20:28:56.205Z,29.00
2018-07-31T20:31:24.910Z,29.00
2018-07-31T20:33:53.680Z,28.90
2018-07-31T20:36:22.388Z,28.80
2018-07-31T20:38:51.141Z,28.70
2018-07-31T20:41:19.914Z,28.70
2018-07-31T20:43:48.550Z,28.70
2018-07-31T20:46:17.356Z,28.70
2018-07-31T20:48:46.121Z,28.60
2018-07-31T20:51:14.897Z,28.60
2018-07-31T20:53:43.629Z,28.50
2018-07-31T20:56:12.390Z,28.50
2018-07-31T20:58:41.157Z,28.50
2018-07-31T21:01:09.893Z,28.50
2018-07-31T21:03:39.455Z,28.40
2018-07-31T21:06:08.187Z,28.30
2018-07-31T21:08:36.915Z,28.30
2018-07-31T21:11:05.649Z,28.20
2018-07-31T21:13:34.328Z,28.20
2018-07-31T21:16:03.110Z,28.10
2018-07-31T21:18:31.867Z,28.10
2018-07-31T21:21:00.557Z,28.10
2018-07-31T21:23:29.289Z,28.00
2018-07-31T21:25:58.021Z,28.00
2018-07-31T21:28:27.671Z,27.90
2018-07-31T21:30:56.800Z,27.90
2018-07-31T21:33:25.513Z,27.80
2018-07-31T21:35:54.241Z,27.80
2018-07-31T21:38:22.944Z,27.70
2018-07-31T21:40:51.642Z,27.70
2018-07-31T21:43:20.536Z,27.70
2018-07-31T21:45:49.270Z,27.60
2018-07-31T21:48:18.207Z,27.60
2018-07-31T21:50:46.893Z,27.60
2018-07-31T21:53:15.649Z,27.60
2018-07-31T21:55:44.365Z,27.60
2018-07-31T21:58:13.207Z,27.60
2018-07-31T22:00:47.270Z,27.50
2018-07-31T22:03:16.083Z,27.50
2018-07-31T22:05:44.846Z,27.40
2018-07-31T22:08:13.555Z,27.80
2018-07-31T22:10:42.322Z,27.30
2018-07-31T22:13:11.009Z,27.20
2018-07-31T22:15:39.738Z,27.10
2018-07-31T22:18:08.441Z,27.10
2018-07-31T22:20:37.214Z,27.10
2018-07-31T22:23:05.937Z,27.00
2018-07-31T22:25:34.657Z,27.00
2018-07-31T22:28:03.428Z,26.90
2018-07-31T22:30:32.873Z,26.90
2018-07-31T22:33:01.585Z,26.80
2018-07-31T22:35:30.312Z,26.80
2018-07-31T22:37:59.046Z,26.70
2018-07-31T22:42:56.141Z,26.70
2018-07-31T22:45:24.875Z,26.70
2018-07-31T22:47:53.686Z,26.60
2018-07-31T22:50:22.325Z,26.60
2018-07-31T22:52:51.115Z,26.60
2018-07-31T22:55:19.779Z,26.50
2018-07-31T22:57:48.461Z,26.50
2018-07-31T23:00:17.145Z,26.50
2018-07-31T23:02:45.829Z,26.50
2018-07-31T23:05:14.534Z,26.60
2018-07-31T23:07:43.233Z,26.50
2018-07-31T23:10:11.977Z,26.50
2018-07-31T23:12:40.734Z,26.40
2018-07-31T23:15:09.507Z,26.30
2018-07-31T23:17:38.189Z,26.30
2018-07-31T23:20:06.913Z,26.30
2018-07-31T23:27:39.054Z,26.10
2018-07-31T23:30:08.268Z,26.00
2018-07-31T23:32:37.655Z,25.90
2018-07-31T23:35:06.632Z,25.90
2018-07-31T23:37:35.349Z,25.90
2018-07-31T23:40:04.839Z,25.80
2018-07-31T23:42:33.629Z,25.80
2018-07-31T23:45:02.376Z,25.70
